sensor_id;sensor_type;location;lat;lon;timestamp;temperature;humidity
12504;DHT22;6316;48.118;-1.690;2023-07-31T00:00:15;19.30;99.90
12504;DHT22;6316;48.118;-1.690;2023-07-31T00:02:41;19.30;99.90
12504;DHT22;6316;48.118;-1.690;2023-07-31T00:05:08;19.30;99.90
12504;DHT22;6316;48.118;-1.690;2023-07-31T00:07:34;19.30;99.90
12504;DHT22;6316;48.118;-1.690;2023-07-31T00:09:59;19.30;99.90
12504;DHT22;6316;48.118;-1.690;2023-07-31T00:12:25;19.30;99.90
12504;DHT22;6316;48.118;-1.690;2023-07-31T00:14:51;19.20;99.90
12504;DHT22;6316;48.118;-1.690;2023-07-31T00:17:17;19.20;99.90
12504;DHT22;6316;48.118;-1.690;2023-07-31T00:19:43;19.20;99.90
12504;DHT22;6316;48.118;-1.690;2023-07-31T00:22:11;19.20;99.90
12504;DHT22;6316;48.118;-1.690;2023-07-31T00:24:37;19.20;99.90
12504;DHT22;6316;48.118;-1.690;2023-07-31T00:27:02;19.20;99.90
12504;DHT22;6316;48.118;-1.690;2023-07-31T00:29:28;19.20;99.90
12504;DHT22;6316;48.118;-1.690;2023-07-31T00:31:54;19.20;99.90
12504;DHT22;6316;48.118;-1.690;2023-07-31T00:34:19;19.20;99.90
12504;DHT22;6316;48.118;-1.690;2023-07-31T00:36:45;19.20;99.90
12504;DHT22;6316;48.118;-1.690;2023-07-31T00:39:10;19.20;99.90
12504;DHT22;6316;48.118;-1.690;2023-07-31T00:41:36;19.20;99.90
12504;DHT22;6316;48.118;-1.690;2023-07-31T00:44:02;19.20;99.90
12504;DHT22;6316;48.118;-1.690;2023-07-31T00:46:27;19.20;99.90
12504;DHT22;6316;48.118;-1.690;2023-07-31T00:48:53;19.20;99.90
12504;DHT22;6316;48.118;-1.690;2023-07-31T00:51:19;19.20;99.90
12504;DHT22;6316;48.118;-1.690;2023-07-31T00:53:45;19.20;99.90
12504;DHT22;6316;48.118;-1.690;2023-07-31T00:56:12;19.20;99.90
12504;DHT22;6316;48.118;-1.690;2023-07-31T00:58:37;19.30;99.90
12504;DHT22;6316;48.118;-1.690;2023-07-31T01:01:03;19.20;99.90
12504;DHT22;6316;48.118;-1.690;2023-07-31T01:03:29;19.20;99.90
12504;DHT22;6316;48.118;-1.690;2023-07-31T01:06:09;19.20;99.90
12504;DHT22;6316;48.118;-1.690;2023-07-31T01:08:58;19.20;99.90
12504;DHT22;6316;48.118;-1.690;2023-07-31T01:11:28;19.20;99.90
12504;DHT22;6316;48.118;-1.690;2023-07-31T01:13:55;19.20;99.90
12504;DHT22;6316;48.118;-1.690;2023-07-31T01:16:21;19.20;99.90
12504;DHT22;6316;48.118;-1.690;2023-07-31T01:18:47;19.20;99.90
12504;DHT22;6316;48.118;-1.690;2023-07-31T01:21:21;19.10;99.90
12504;DHT22;6316;48.118;-1.690;2023-07-31T01:26:32;19.10;99.90
12504;DHT22;6316;48.118;-1.690;2023-07-31T01:29:07;19.10;99.90
12504;DHT22;6316;48.118;-1.690;2023-07-31T01:31:34;19.10;99.90
12504;DHT22;6316;48.118;-1.690;2023-07-31T01:34:02;19.10;99.90
12504;DHT22;6316;48.118;-1.690;2023-07-31T01:36:30;19.10;99.90
12504;DHT22;6316;48.118;-1.690;2023-07-31T01:38:59;19.10;99.90
12504;DHT22;6316;48.118;-1.690;2023-07-31T01:41:26;19.10;99.90
12504;DHT22;6316;48.118;-1.690;2023-07-31T01:43:51;19.10;99.90
12504;DHT22;6316;48.118;-1.690;2023-07-31T01:46:17;19.10;99.90
12504;DHT22;6316;48.118;-1.690;2023-07-31T01:48:42;19.20;99.90
12504;DHT22;6316;48.118;-1.690;2023-07-31T01:51:08;19.10;99.90
12504;DHT22;6316;48.118;-1.690;2023-07-31T01:53:34;19.10;99.90
12504;DHT22;6316;48.118;-1.690;2023-07-31T01:55:59;19.10;99.90
12504;DHT22;6316;48.118;-1.690;2023-07-31T01:58:25;19.10;99.90
12504;DHT22;6316;48.118;-1.690;2023-07-31T02:00:51;19.10;99.90
12504;DHT22;6316;48.118;-1.690;2023-07-31T02:03:16;19.10;99.90
12504;DHT22;6316;48.118;-1.690;2023-07-31T02:05:46;19.10;99.90
12504;DHT22;6316;48.118;-1.690;2023-07-31T02:08:12;19.10;99.90
12504;DHT22;6316;48.118;-1.690;2023-07-31T02:10:37;19.10;99.90
12504;DHT22;6316;48.118;-1.690;2023-07-31T02:13:03;19.10;99.90
12504;DHT22;6316;48.118;-1.690;2023-07-31T02:15:30;19.10;99.90
12504;DHT22;6316;48.118;-1.690;2023-07-31T02:17:56;19.00;99.90
12504;DHT22;6316;48.118;-1.690;2023-07-31T02:20:21;19.00;99.90
12504;DHT22;6316;48.118;-1.690;2023-07-31T02:22:47;19.00;99.90
12504;DHT22;6316;48.118;-1.690;2023-07-31T02:25:13;19.00;99.90
12504;DHT22;6316;48.118;-1.690;2023-07-31T02:27:38;19.00;99.90
12504;DHT22;6316;48.118;-1.690;2023-07-31T02:30:04;19.00;99.90
12504;DHT22;6316;48.118;-1.690;2023-07-31T02:32:30;19.00;99.90
12504;DHT22;6316;48.118;-1.690;2023-07-31T02:34:56;19.00;99.90
12504;DHT22;6316;48.118;-1.690;2023-07-31T02:37:21;19.00;99.90
12504;DHT22;6316;48.118;-1.690;2023-07-31T02:39:47;19.00;99.90
12504;DHT22;6316;48.118;-1.690;2023-07-31T02:42:13;19.00;99.90
12504;DHT22;6316;48.118;-1.690;2023-07-31T02:44:39;19.00;99.90
12504;DHT22;6316;48.118;-1.690;2023-07-31T02:47:05;19.00;99.90
12504;DHT22;6316;48.118;-1.690;2023-07-31T02:49:30;19.00;99.90
12504;DHT22;6316;48.118;-1.690;2023-07-31T02:51:56;19.00;99.90
12504;DHT22;6316;48.118;-1.690;2023-07-31T02:54:22;19.00;99.90
12504;DHT22;6316;48.118;-1.690;2023-07-31T02:56:48;19.00;99.90
12504;DHT22;6316;48.118;-1.690;2023-07-31T02:59:13;19.00;99.90
12504;DHT22;6316;48.118;-1.690;2023-07-31T03:01:39;19.10;99.90
12504;DHT22;6316;48.118;-1.690;2023-07-31T03:04:05;19.10;99.90
12504;DHT22;6316;48.118;-1.690;2023-07-31T03:06:31;19.10;99.90
12504;DHT22;6316;48.118;-1.690;2023-07-31T03:08:56;19.10;99.90
12504;DHT22;6316;48.118;-1.690;2023-07-31T03:11:22;19.10;99.90
12504;DHT22;6316;48.118;-1.690;2023-07-31T03:13:47;19.10;99.90
12504;DHT22;6316;48.118;-1.690;2023-07-31T03:16:13;19.10;99.90
12504;DHT22;6316;48.118;-1.690;2023-07-31T03:18:39;19.10;99.90
12504;DHT22;6316;48.118;-1.690;2023-07-31T03:21:04;19.10;99.90
12504;DHT22;6316;48.118;-1.690;2023-07-31T03:23:30;19.10;99.90
12504;DHT22;6316;48.118;-1.690;2023-07-31T03:26:00;19.10;99.90
12504;DHT22;6316;48.118;-1.690;2023-07-31T03:28:27;19.10;99.90
12504;DHT22;6316;48.118;-1.690;2023-07-31T03:30:53;19.10;99.90
12504;DHT22;6316;48.118;-1.690;2023-07-31T03:33:19;19.10;99.90
12504;DHT22;6316;48.118;-1.690;2023-07-31T03:35:45;19.10;99.90
12504;DHT22;6316;48.118;-1.690;2023-07-31T03:38:10;19.10;99.90
12504;DHT22;6316;48.118;-1.690;2023-07-31T03:40:36;19.10;99.90
12504;DHT22;6316;48.118;-1.690;2023-07-31T03:43:02;19.10;99.90
12504;DHT22;6316;48.118;-1.690;2023-07-31T03:45:27;19.10;99.90
12504;DHT22;6316;48.118;-1.690;2023-07-31T03:47:53;19.10;99.90
12504;DHT22;6316;48.118;-1.690;2023-07-31T03:50:20;19.00;99.90
12504;DHT22;6316;48.118;-1.690;2023-07-31T03:52:46;19.00;99.90
12504;DHT22;6316;48.118;-1.690;2023-07-31T03:55:11;19.00;99.90
12504;DHT22;6316;48.118;-1.690;2023-07-31T03:57:37;19.00;99.90
12504;DHT22;6316;48.118;-1.690;2023-07-31T04:00:03;19.00;99.90
12504;DHT22;6316;48.118;-1.690;2023-07-31T04:02:29;19.00;99.90
12504;DHT22;6316;48.118;-1.690;2023-07-31T04:04:54;19.00;99.90
12504;DHT22;6316;48.118;-1.690;2023-07-31T04:07:20;19.00;99.90
12504;DHT22;6316;48.118;-1.690;2023-07-31T04:09:46;19.00;99.90
12504;DHT22;6316;48.118;-1.690;2023-07-31T04:12:11;19.10;99.90
12504;DHT22;6316;48.118;-1.690;2023-07-31T04:14:37;19.00;99.90
12504;DHT22;6316;48.118;-1.690;2023-07-31T04:17:03;19.10;99.90
12504;DHT22;6316;48.118;-1.690;2023-07-31T04:19:28;19.10;99.90
12504;DHT22;6316;48.118;-1.690;2023-07-31T04:21:54;19.10;99.90
12504;DHT22;6316;48.118;-1.690;2023-07-31T04:24:19;19.10;99.90
12504;DHT22;6316;48.118;-1.690;2023-07-31T04:26:50;19.10;99.90
12504;DHT22;6316;48.118;-1.690;2023-07-31T04:29:16;19.10;99.90
12504;DHT22;6316;48.118;-1.690;2023-07-31T04:31:42;19.10;99.90
12504;DHT22;6316;48.118;-1.690;2023-07-31T04:34:07;19.10;99.90
12504;DHT22;6316;48.118;-1.690;2023-07-31T04:36:34;19.10;99.90
12504;DHT22;6316;48.118;-1.690;2023-07-31T04:39:00;19.10;99.90
12504;DHT22;6316;48.118;-1.690;2023-07-31T04:41:26;19.10;99.90
12504;DHT22;6316;48.118;-1.690;2023-07-31T04:43:52;19.10;99.90
12504;DHT22;6316;48.118;-1.690;2023-07-31T04:46:17;19.10;99.90
12504;DHT22;6316;48.118;-1.690;2023-07-31T04:48:43;19.10;99.90
12504;DHT22;6316;48.118;-1.690;2023-07-31T04:51:09;19.10;99.90
12504;DHT22;6316;48.118;-1.690;2023-07-31T04:53:35;19.10;99.90
12504;DHT22;6316;48.118;-1.690;2023-07-31T04:56:01;19.10;99.90
12504;DHT22;6316;48.118;-1.690;2023-07-31T04:58:26;19.20;99.90
12504;DHT22;6316;48.118;-1.690;2023-07-31T05:00:52;19.20;99.90
12504;DHT22;6316;48.118;-1.690;2023-07-31T05:03:18;19.20;99.90
12504;DHT22;6316;48.118;-1.690;2023-07-31T05:05:43;19.20;99.90
12504;DHT22;6316;48.118;-1.690;2023-07-31T05:08:09;19.20;99.90
12504;DHT22;6316;48.118;-1.690;2023-07-31T05:10:35;19.20;99.90
12504;DHT22;6316;48.118;-1.690;2023-07-31T05:13:00;19.20;99.90
12504;DHT22;6316;48.118;-1.690;2023-07-31T05:15:26;19.20;99.90
12504;DHT22;6316;48.118;-1.690;2023-07-31T05:17:52;19.20;99.90
12504;DHT22;6316;48.118;-1.690;2023-07-31T05:20:17;19.20;99.90
12504;DHT22;6316;48.118;-1.690;2023-07-31T05:22:43;19.20;99.90
12504;DHT22;6316;48.118;-1.690;2023-07-31T05:25:09;19.20;99.90
12504;DHT22;6316;48.118;-1.690;2023-07-31T05:27:34;19.20;99.90
12504;DHT22;6316;48.118;-1.690;2023-07-31T05:30:00;19.30;99.90
12504;DHT22;6316;48.118;-1.690;2023-07-31T05:32:26;19.30;99.90
12504;DHT22;6316;48.118;-1.690;2023-07-31T05:34:52;19.30;99.90
12504;DHT22;6316;48.118;-1.690;2023-07-31T05:37:18;19.30;99.90
12504;DHT22;6316;48.118;-1.690;2023-07-31T05:39:44;19.30;99.90
12504;DHT22;6316;48.118;-1.690;2023-07-31T05:42:10;19.30;99.90
12504;DHT22;6316;48.118;-1.690;2023-07-31T05:44:36;19.30;99.90
12504;DHT22;6316;48.118;-1.690;2023-07-31T05:47:01;19.40;99.90
12504;DHT22;6316;48.118;-1.690;2023-07-31T05:49:27;19.40;99.90
12504;DHT22;6316;48.118;-1.690;2023-07-31T05:51:53;19.40;99.90
12504;DHT22;6316;48.118;-1.690;2023-07-31T05:54:18;19.40;99.90
12504;DHT22;6316;48.118;-1.690;2023-07-31T05:56:44;19.40;99.90
12504;DHT22;6316;48.118;-1.690;2023-07-31T05:59:12;19.40;99.90
12504;DHT22;6316;48.118;-1.690;2023-07-31T06:01:38;19.40;99.90
12504;DHT22;6316;48.118;-1.690;2023-07-31T06:04:04;19.40;99.90
12504;DHT22;6316;48.118;-1.690;2023-07-31T06:06:30;19.50;99.90
12504;DHT22;6316;48.118;-1.690;2023-07-31T06:08:55;19.50;99.90
12504;DHT22;6316;48.118;-1.690;2023-07-31T06:11:21;19.50;99.90
12504;DHT22;6316;48.118;-1.690;2023-07-31T06:13:47;19.60;99.90
12504;DHT22;6316;48.118;-1.690;2023-07-31T06:16:14;19.60;99.90
12504;DHT22;6316;48.118;-1.690;2023-07-31T06:18:41;19.60;99.90
12504;DHT22;6316;48.118;-1.690;2023-07-31T06:21:07;19.60;99.90
12504;DHT22;6316;48.118;-1.690;2023-07-31T06:23:33;19.60;99.90
12504;DHT22;6316;48.118;-1.690;2023-07-31T06:25:59;19.70;99.90
12504;DHT22;6316;48.118;-1.690;2023-07-31T06:28:29;19.70;99.90
12504;DHT22;6316;48.118;-1.690;2023-07-31T06:30:55;19.80;99.90
12504;DHT22;6316;48.118;-1.690;2023-07-31T06:33:21;19.80;99.90
12504;DHT22;6316;48.118;-1.690;2023-07-31T06:35:46;19.80;99.90
12504;DHT22;6316;48.118;-1.690;2023-07-31T06:38:12;19.90;99.90
12504;DHT22;6316;48.118;-1.690;2023-07-31T06:40:38;19.90;99.90
12504;DHT22;6316;48.118;-1.690;2023-07-31T06:43:03;20.00;99.90
12504;DHT22;6316;48.118;-1.690;2023-07-31T06:45:34;20.00;99.90
12504;DHT22;6316;48.118;-1.690;2023-07-31T06:48:00;20.00;99.90
12504;DHT22;6316;48.118;-1.690;2023-07-31T06:50:30;20.00;99.90
12504;DHT22;6316;48.118;-1.690;2023-07-31T06:52:56;20.00;99.90
12504;DHT22;6316;48.118;-1.690;2023-07-31T06:55:23;20.00;99.90
12504;DHT22;6316;48.118;-1.690;2023-07-31T06:57:51;20.00;99.90
12504;DHT22;6316;48.118;-1.690;2023-07-31T07:00:18;20.10;99.90
12504;DHT22;6316;48.118;-1.690;2023-07-31T07:02:45;20.10;99.90
12504;DHT22;6316;48.118;-1.690;2023-07-31T07:05:13;20.10;99.90
12504;DHT22;6316;48.118;-1.690;2023-07-31T07:07:38;20.10;99.90
12504;DHT22;6316;48.118;-1.690;2023-07-31T07:10:04;20.10;99.90
12504;DHT22;6316;48.118;-1.690;2023-07-31T07:12:31;20.10;99.90
12504;DHT22;6316;48.118;-1.690;2023-07-31T07:14:58;20.10;99.90
12504;DHT22;6316;48.118;-1.690;2023-07-31T07:17:25;20.10;99.90
12504;DHT22;6316;48.118;-1.690;2023-07-31T07:19:51;20.00;99.90
12504;DHT22;6316;48.118;-1.690;2023-07-31T07:22:17;20.10;99.90
12504;DHT22;6316;48.118;-1.690;2023-07-31T07:24:42;20.10;99.90
12504;DHT22;6316;48.118;-1.690;2023-07-31T07:27:08;20.00;99.90
12504;DHT22;6316;48.118;-1.690;2023-07-31T07:29:34;20.00;99.90
12504;DHT22;6316;48.118;-1.690;2023-07-31T07:32:00;20.10;99.90
12504;DHT22;6316;48.118;-1.690;2023-07-31T07:34:27;20.10;99.90
12504;DHT22;6316;48.118;-1.690;2023-07-31T07:36:53;20.10;99.90
12504;DHT22;6316;48.118;-1.690;2023-07-31T07:39:19;20.10;99.90
12504;DHT22;6316;48.118;-1.690;2023-07-31T07:41:44;20.10;99.90
12504;DHT22;6316;48.118;-1.690;2023-07-31T07:44:10;20.10;99.90
12504;DHT22;6316;48.118;-1.690;2023-07-31T07:46:36;20.10;99.90
12504;DHT22;6316;48.118;-1.690;2023-07-31T07:49:01;20.10;99.90
12504;DHT22;6316;48.118;-1.690;2023-07-31T07:51:27;20.20;99.90
12504;DHT22;6316;48.118;-1.690;2023-07-31T07:53:52;20.20;99.90
12504;DHT22;6316;48.118;-1.690;2023-07-31T07:56:18;20.20;99.90
12504;DHT22;6316;48.118;-1.690;2023-07-31T07:58:44;20.20;99.90
12504;DHT22;6316;48.118;-1.690;2023-07-31T08:01:09;20.30;99.90
12504;DHT22;6316;48.118;-1.690;2023-07-31T08:03:35;20.30;99.90
12504;DHT22;6316;48.118;-1.690;2023-07-31T08:06:01;20.30;99.90
12504;DHT22;6316;48.118;-1.690;2023-07-31T08:08:28;20.40;99.90
12504;DHT22;6316;48.118;-1.690;2023-07-31T08:10:53;20.40;99.90
12504;DHT22;6316;48.118;-1.690;2023-07-31T08:13:19;20.40;99.90
12504;DHT22;6316;48.118;-1.690;2023-07-31T08:15:45;20.40;99.90
12504;DHT22;6316;48.118;-1.690;2023-07-31T08:18:11;20.40;99.90
12504;DHT22;6316;48.118;-1.690;2023-07-31T08:20:37;20.40;99.90
12504;DHT22;6316;48.118;-1.690;2023-07-31T08:23:03;20.40;99.90
12504;DHT22;6316;48.118;-1.690;2023-07-31T08:25:29;20.40;99.90
12504;DHT22;6316;48.118;-1.690;2023-07-31T08:27:55;20.40;99.90
12504;DHT22;6316;48.118;-1.690;2023-07-31T08:30:21;20.40;99.90
12504;DHT22;6316;48.118;-1.690;2023-07-31T08:32:46;20.40;99.90
12504;DHT22;6316;48.118;-1.690;2023-07-31T08:35:12;20.40;99.90
12504;DHT22;6316;48.118;-1.690;2023-07-31T08:37:38;20.40;99.90
12504;DHT22;6316;48.118;-1.690;2023-07-31T08:40:05;20.50;99.90
12504;DHT22;6316;48.118;-1.690;2023-07-31T08:42:31;20.40;99.90
12504;DHT22;6316;48.118;-1.690;2023-07-31T08:44:59;20.40;99.90
12504;DHT22;6316;48.118;-1.690;2023-07-31T08:47:25;20.50;99.90
12504;DHT22;6316;48.118;-1.690;2023-07-31T08:49:51;20.40;99.90
12504;DHT22;6316;48.118;-1.690;2023-07-31T08:52:18;20.40;99.90
12504;DHT22;6316;48.118;-1.690;2023-07-31T08:54:43;20.50;99.90
12504;DHT22;6316;48.118;-1.690;2023-07-31T08:57:10;20.50;99.90
12504;DHT22;6316;48.118;-1.690;2023-07-31T08:59:37;20.50;99.90
12504;DHT22;6316;48.118;-1.690;2023-07-31T09:02:08;20.50;99.90
12504;DHT22;6316;48.118;-1.690;2023-07-31T09:04:34;20.60;99.90
12504;DHT22;6316;48.118;-1.690;2023-07-31T09:07:01;20.60;99.90
12504;DHT22;6316;48.118;-1.690;2023-07-31T09:09:32;20.70;99.90
12504;DHT22;6316;48.118;-1.690;2023-07-31T09:11:58;20.70;99.90
12504;DHT22;6316;48.118;-1.690;2023-07-31T09:14:27;20.80;99.90
12504;DHT22;6316;48.118;-1.690;2023-07-31T09:16:57;20.80;99.90
12504;DHT22;6316;48.118;-1.690;2023-07-31T09:19:28;20.90;99.90
12504;DHT22;6316;48.118;-1.690;2023-07-31T09:21:54;20.90;99.90
12504;DHT22;6316;48.118;-1.690;2023-07-31T09:24:31;20.90;99.90
12504;DHT22;6316;48.118;-1.690;2023-07-31T09:26:58;20.90;99.90
12504;DHT22;6316;48.118;-1.690;2023-07-31T09:29:25;21.00;99.90
12504;DHT22;6316;48.118;-1.690;2023-07-31T09:31:52;21.10;99.90
12504;DHT22;6316;48.118;-1.690;2023-07-31T09:34:18;21.20;99.90
12504;DHT22;6316;48.118;-1.690;2023-07-31T09:36:46;21.40;99.90
12504;DHT22;6316;48.118;-1.690;2023-07-31T09:39:14;21.60;99.90
12504;DHT22;6316;48.118;-1.690;2023-07-31T09:41:53;21.80;99.90
12504;DHT22;6316;48.118;-1.690;2023-07-31T09:44:19;22.10;99.90
12504;DHT22;6316;48.118;-1.690;2023-07-31T09:46:45;22.30;99.90
12504;DHT22;6316;48.118;-1.690;2023-07-31T09:49:12;22.50;99.90
12504;DHT22;6316;48.118;-1.690;2023-07-31T09:51:40;22.60;99.90
12504;DHT22;6316;48.118;-1.690;2023-07-31T09:54:16;22.70;99.90
12504;DHT22;6316;48.118;-1.690;2023-07-31T09:56:48;22.80;99.90
12504;DHT22;6316;48.118;-1.690;2023-07-31T09:59:16;22.80;99.90
12504;DHT22;6316;48.118;-1.690;2023-07-31T10:01:43;22.70;99.90
12504;DHT22;6316;48.118;-1.690;2023-07-31T10:04:10;22.70;99.90
12504;DHT22;6316;48.118;-1.690;2023-07-31T10:06:37;22.70;99.90
12504;DHT22;6316;48.118;-1.690;2023-07-31T10:09:06;22.60;99.90
12504;DHT22;6316;48.118;-1.690;2023-07-31T10:11:45;22.50;99.90
12504;DHT22;6316;48.118;-1.690;2023-07-31T10:14:19;22.40;99.90
12504;DHT22;6316;48.118;-1.690;2023-07-31T10:16:45;22.30;99.90
12504;DHT22;6316;48.118;-1.690;2023-07-31T10:19:11;22.20;99.90
12504;DHT22;6316;48.118;-1.690;2023-07-31T10:21:37;22.10;99.90
12504;DHT22;6316;48.118;-1.690;2023-07-31T10:24:06;22.00;99.90
12504;DHT22;6316;48.118;-1.690;2023-07-31T10:26:32;21.90;99.90
12504;DHT22;6316;48.118;-1.690;2023-07-31T10:28:59;21.80;99.90
12504;DHT22;6316;48.118;-1.690;2023-07-31T10:31:27;21.80;99.90
12504;DHT22;6316;48.118;-1.690;2023-07-31T10:33:55;21.80;99.90
12504;DHT22;6316;48.118;-1.690;2023-07-31T10:36:22;21.70;99.90
12504;DHT22;6316;48.118;-1.690;2023-07-31T10:38:50;21.70;99.90
12504;DHT22;6316;48.118;-1.690;2023-07-31T10:41:16;21.60;99.90
12504;DHT22;6316;48.118;-1.690;2023-07-31T10:43:42;21.60;99.90
12504;DHT22;6316;48.118;-1.690;2023-07-31T10:46:14;21.60;99.90
12504;DHT22;6316;48.118;-1.690;2023-07-31T10:48:40;21.50;99.90
12504;DHT22;6316;48.118;-1.690;2023-07-31T10:51:11;21.60;99.90
12504;DHT22;6316;48.118;-1.690;2023-07-31T10:53:38;21.60;99.90
12504;DHT22;6316;48.118;-1.690;2023-07-31T10:56:09;21.70;99.90
12504;DHT22;6316;48.118;-1.690;2023-07-31T10:58:38;21.80;99.90
12504;DHT22;6316;48.118;-1.690;2023-07-31T11:01:05;22.00;99.90
12504;DHT22;6316;48.118;-1.690;2023-07-31T11:03:50;22.20;99.90
12504;DHT22;6316;48.118;-1.690;2023-07-31T11:06:18;22.40;99.90
12504;DHT22;6316;48.118;-1.690;2023-07-31T11:08:46;22.50;99.90
12504;DHT22;6316;48.118;-1.690;2023-07-31T11:11:17;22.60;99.90
12504;DHT22;6316;48.118;-1.690;2023-07-31T11:13:49;22.60;99.90
12504;DHT22;6316;48.118;-1.690;2023-07-31T11:16:17;22.60;99.90
12504;DHT22;6316;48.118;-1.690;2023-07-31T11:18:45;22.70;99.90
12504;DHT22;6316;48.118;-1.690;2023-07-31T11:21:14;22.80;99.90
12504;DHT22;6316;48.118;-1.690;2023-07-31T11:23:40;22.70;99.90
12504;DHT22;6316;48.118;-1.690;2023-07-31T11:26:06;22.70;99.90
12504;DHT22;6316;48.118;-1.690;2023-07-31T11:28:34;22.60;99.90
12504;DHT22;6316;48.118;-1.690;2023-07-31T11:31:00;22.70;99.90
12504;DHT22;6316;48.118;-1.690;2023-07-31T11:33:26;22.70;99.90
12504;DHT22;6316;48.118;-1.690;2023-07-31T11:35:52;22.60;99.90
12504;DHT22;6316;48.118;-1.690;2023-07-31T11:38:22;22.60;99.90
12504;DHT22;6316;48.118;-1.690;2023-07-31T11:40:49;22.60;99.90
12504;DHT22;6316;48.118;-1.690;2023-07-31T11:43:15;22.60;99.90
12504;DHT22;6316;48.118;-1.690;2023-07-31T11:45:50;22.50;99.90
12504;DHT22;6316;48.118;-1.690;2023-07-31T11:48:26;22.40;99.90
12504;DHT22;6316;48.118;-1.690;2023-07-31T11:50:54;22.40;99.90
12504;DHT22;6316;48.118;-1.690;2023-07-31T11:53:45;22.30;99.90
12504;DHT22;6316;48.118;-1.690;2023-07-31T11:56:10;22.30;99.90
12504;DHT22;6316;48.118;-1.690;2023-07-31T11:58:38;22.40;99.90
12504;DHT22;6316;48.118;-1.690;2023-07-31T12:01:05;22.50;99.90
12504;DHT22;6316;48.118;-1.690;2023-07-31T12:03:31;22.50;99.90
12504;DHT22;6316;48.118;-1.690;2023-07-31T12:05:58;22.50;99.90
12504;DHT22;6316;48.118;-1.690;2023-07-31T12:08:24;22.60;99.90
12504;DHT22;6316;48.118;-1.690;2023-07-31T12:10:51;22.70;99.90
12504;DHT22;6316;48.118;-1.690;2023-07-31T12:13:22;22.70;99.90
12504;DHT22;6316;48.118;-1.690;2023-07-31T12:15:48;22.80;99.90
12504;DHT22;6316;48.118;-1.690;2023-07-31T12:18:18;22.90;99.90
12504;DHT22;6316;48.118;-1.690;2023-07-31T12:20:47;23.00;99.90
12504;DHT22;6316;48.118;-1.690;2023-07-31T12:23:27;23.10;99.90
12504;DHT22;6316;48.118;-1.690;2023-07-31T12:28:54;23.10;99.90
12504;DHT22;6316;48.118;-1.690;2023-07-31T12:31:21;23.10;99.90
12504;DHT22;6316;48.118;-1.690;2023-07-31T12:33:49;23.00;99.90
12504;DHT22;6316;48.118;-1.690;2023-07-31T12:36:22;23.10;99.90
12504;DHT22;6316;48.118;-1.690;2023-07-31T12:38:50;23.00;99.90
12504;DHT22;6316;48.118;-1.690;2023-07-31T12:41:16;23.00;99.90
12504;DHT22;6316;48.118;-1.690;2023-07-31T12:43:43;22.90;99.90
12504;DHT22;6316;48.118;-1.690;2023-07-31T12:46:09;22.90;99.90
12504;DHT22;6316;48.118;-1.690;2023-07-31T12:48:37;22.80;99.90
12504;DHT22;6316;48.118;-1.690;2023-07-31T12:51:03;22.80;99.90
12504;DHT22;6316;48.118;-1.690;2023-07-31T12:53:30;22.70;99.90
12504;DHT22;6316;48.118;-1.690;2023-07-31T12:55:56;22.70;99.90
12504;DHT22;6316;48.118;-1.690;2023-07-31T12:58:22;22.60;99.90
12504;DHT22;6316;48.118;-1.690;2023-07-31T13:00:47;22.50;99.90
12504;DHT22;6316;48.118;-1.690;2023-07-31T13:03:13;22.50;99.90
12504;DHT22;6316;48.118;-1.690;2023-07-31T13:05:39;22.40;99.90
12504;DHT22;6316;48.118;-1.690;2023-07-31T13:08:05;22.40;99.90
12504;DHT22;6316;48.118;-1.690;2023-07-31T13:10:30;22.40;99.90
12504;DHT22;6316;48.118;-1.690;2023-07-31T13:12:56;22.40;99.90
12504;DHT22;6316;48.118;-1.690;2023-07-31T13:15:22;22.40;99.90
12504;DHT22;6316;48.118;-1.690;2023-07-31T13:17:48;22.40;99.90
12504;DHT22;6316;48.118;-1.690;2023-07-31T13:20:14;22.40;99.90
12504;DHT22;6316;48.118;-1.690;2023-07-31T13:22:39;22.40;99.90
12504;DHT22;6316;48.118;-1.690;2023-07-31T13:25:06;22.40;99.90
12504;DHT22;6316;48.118;-1.690;2023-07-31T13:27:32;22.40;99.90
12504;DHT22;6316;48.118;-1.690;2023-07-31T13:29:57;22.40;99.90
12504;DHT22;6316;48.118;-1.690;2023-07-31T13:32:23;22.40;99.90
12504;DHT22;6316;48.118;-1.690;2023-07-31T13:34:49;22.30;99.90
12504;DHT22;6316;48.118;-1.690;2023-07-31T13:37:15;22.20;99.90
12504;DHT22;6316;48.118;-1.690;2023-07-31T13:39:41;22.20;99.90
12504;DHT22;6316;48.118;-1.690;2023-07-31T13:42:08;22.20;99.90
12504;DHT22;6316;48.118;-1.690;2023-07-31T13:44:34;22.10;99.90
12504;DHT22;6316;48.118;-1.690;2023-07-31T13:47:00;22.10;99.90
12504;DHT22;6316;48.118;-1.690;2023-07-31T13:49:27;22.00;99.90
12504;DHT22;6316;48.118;-1.690;2023-07-31T13:51:52;21.90;99.90
12504;DHT22;6316;48.118;-1.690;2023-07-31T13:54:18;21.80;99.90
12504;DHT22;6316;48.118;-1.690;2023-07-31T13:56:44;21.70;99.90
12504;DHT22;6316;48.118;-1.690;2023-07-31T13:59:10;21.60;99.90
12504;DHT22;6316;48.118;-1.690;2023-07-31T14:01:36;21.50;99.90
12504;DHT22;6316;48.118;-1.690;2023-07-31T14:04:02;21.40;99.90
12504;DHT22;6316;48.118;-1.690;2023-07-31T14:06:28;21.40;99.90
12504;DHT22;6316;48.118;-1.690;2023-07-31T14:08:53;21.30;99.90
12504;DHT22;6316;48.118;-1.690;2023-07-31T14:11:19;21.30;99.90
12504;DHT22;6316;48.118;-1.690;2023-07-31T14:13:45;21.20;99.90
12504;DHT22;6316;48.118;-1.690;2023-07-31T14:16:10;21.20;99.90
12504;DHT22;6316;48.118;-1.690;2023-07-31T14:18:36;21.10;99.90
12504;DHT22;6316;48.118;-1.690;2023-07-31T14:21:02;21.10;99.90
12504;DHT22;6316;48.118;-1.690;2023-07-31T14:23:27;21.00;99.90
12504;DHT22;6316;48.118;-1.690;2023-07-31T14:25:53;20.90;99.90
12504;DHT22;6316;48.118;-1.690;2023-07-31T14:28:18;20.90;99.90
12504;DHT22;6316;48.118;-1.690;2023-07-31T14:30:44;20.80;99.90
12504;DHT22;6316;48.118;-1.690;2023-07-31T14:33:10;20.80;99.90
12504;DHT22;6316;48.118;-1.690;2023-07-31T14:35:35;20.80;99.90
12504;DHT22;6316;48.118;-1.690;2023-07-31T14:38:01;20.70;99.90
12504;DHT22;6316;48.118;-1.690;2023-07-31T14:40:27;20.70;99.90
12504;DHT22;6316;48.118;-1.690;2023-07-31T14:42:52;20.60;99.90
12504;DHT22;6316;48.118;-1.690;2023-07-31T14:45:18;20.60;99.90
12504;DHT22;6316;48.118;-1.690;2023-07-31T14:47:44;20.60;99.90
12504;DHT22;6316;48.118;-1.690;2023-07-31T14:50:09;20.60;99.90
12504;DHT22;6316;48.118;-1.690;2023-07-31T14:52:35;20.60;99.90
12504;DHT22;6316;48.118;-1.690;2023-07-31T14:55:01;20.60;99.90
12504;DHT22;6316;48.118;-1.690;2023-07-31T14:57:27;20.60;99.90
12504;DHT22;6316;48.118;-1.690;2023-07-31T14:59:53;20.60;99.90
12504;DHT22;6316;48.118;-1.690;2023-07-31T15:02:18;20.60;99.90
12504;DHT22;6316;48.118;-1.690;2023-07-31T15:04:44;20.60;99.90
12504;DHT22;6316;48.118;-1.690;2023-07-31T15:07:10;20.60;99.90
12504;DHT22;6316;48.118;-1.690;2023-07-31T15:09:37;20.60;99.90
12504;DHT22;6316;48.118;-1.690;2023-07-31T15:12:02;20.60;99.90
12504;DHT22;6316;48.118;-1.690;2023-07-31T15:14:28;20.60;99.90
12504;DHT22;6316;48.118;-1.690;2023-07-31T15:16:56;20.70;99.90
12504;DHT22;6316;48.118;-1.690;2023-07-31T15:19:22;20.70;99.90
12504;DHT22;6316;48.118;-1.690;2023-07-31T15:21:49;20.80;99.90
12504;DHT22;6316;48.118;-1.690;2023-07-31T15:24:14;20.80;99.90
12504;DHT22;6316;48.118;-1.690;2023-07-31T15:26:40;20.90;99.90
12504;DHT22;6316;48.118;-1.690;2023-07-31T15:29:07;20.90;99.90
12504;DHT22;6316;48.118;-1.690;2023-07-31T15:31:45;20.90;99.90